createdAt,value
2022-08-24T00:00:00.080Z,22.16
2022-08-24T00:00:35.374Z,22.15
2022-08-24T00:01:13.579Z,22.15
2022-08-24T00:01:47.021Z,22.14
2022-08-24T00:02:20.419Z,22.14
2022-08-24T00:02:54.041Z,22.15
2022-08-24T00:03:31.761Z,22.14
2022-08-24T00:04:08.071Z,22.13
2022-08-24T00:04:41.481Z,22.13
2022-08-24T00:05:15.210Z,22.14
2022-08-24T00:05:48.733Z,22.13
2022-08-24T00:06:23.659Z,22.13
2022-08-24T00:06:57.526Z,22.12
2022-08-24T00:07:31.928Z,22.12
2022-08-24T00:08:05.325Z,22.12
2022-08-24T00:08:39.991Z,22.11
2022-08-24T00:09:13.355Z,22.10
2022-08-24T00:09:49.568Z,22.10
2022-08-24T00:10:25.512Z,22.10
2022-08-24T00:11:00.070Z,22.09
2022-08-24T00:11:33.144Z,22.08
2022-08-24T00:12:06.520Z,22.07
2022-08-24T00:12:41.227Z,22.07
2022-08-24T00:13:15.173Z,22.05
2022-08-24T00:13:48.743Z,22.05
2022-08-24T00:14:22.034Z,22.04
2022-08-24T00:14:56.597Z,22.02
2022-08-24T00:15:29.769Z,22.02
2022-08-24T00:16:03.418Z,22.01
2022-08-24T00:16:36.915Z,22.00
2022-08-24T00:17:10.310Z,22.00
2022-08-24T00:17:43.488Z,21.99
2022-08-24T00:18:16.992Z,21.98
2022-08-24T00:18:50.129Z,21.97
2022-08-24T00:19:23.983Z,21.95
2022-08-24T00:19:57.348Z,21.95
2022-08-24T00:20:30.957Z,21.94
2022-08-24T00:21:05.961Z,21.93
2022-08-24T00:21:39.259Z,21.92
2022-08-24T00:22:13.604Z,21.91
2022-08-24T00:22:46.810Z,21.91
2022-08-24T00:23:20.535Z,21.91
2022-08-24T00:23:54.738Z,21.91
2022-08-24T00:24:28.529Z,21.90
2022-08-24T00:25:02.247Z,21.91
2022-08-24T00:25:35.782Z,21.92
2022-08-24T00:26:10.663Z,21.93
2022-08-24T00:26:46.191Z,21.92
2022-08-24T00:27:19.230Z,21.92
2022-08-24T00:27:53.395Z,21.93
2022-08-24T00:28:26.641Z,21.93
2022-08-24T00:29:03.095Z,21.93
2022-08-24T00:29:39.695Z,21.93
2022-08-24T00:30:17.140Z,21.94
2022-08-24T00:30:50.683Z,21.94
2022-08-24T00:31:23.906Z,21.95
2022-08-24T00:31:57.189Z,21.95
2022-08-24T00:32:30.439Z,21.96
2022-08-24T00:33:04.142Z,21.96
2022-08-24T00:33:37.270Z,21.96
2022-08-24T00:34:10.747Z,21.97
2022-08-24T00:34:45.899Z,21.96
2022-08-24T00:35:32.331Z,21.97
2022-08-24T00:36:05.923Z,21.98
2022-08-24T00:36:39.288Z,21.97
2022-08-24T00:37:12.923Z,21.98
2022-08-24T00:37:48.088Z,21.98
2022-08-24T00:38:21.381Z,21.98
2022-08-24T00:38:54.661Z,21.98
2022-08-24T00:39:27.837Z,21.99
2022-08-24T00:40:01.149Z,21.98
2022-08-24T00:40:37.809Z,21.97
2022-08-24T00:41:10.857Z,21.97
2022-08-24T00:41:47.652Z,21.97
2022-08-24T00:42:20.760Z,21.97
2022-08-24T00:42:55.743Z,21.96
2022-08-24T00:43:29.377Z,21.95
2022-08-24T00:44:05.369Z,21.94
2022-08-24T00:44:38.580Z,21.92
2022-08-24T00:45:14.997Z,21.90
2022-08-24T00:46:19.038Z,21.89
2022-08-24T00:46:58.409Z,21.85
2022-08-24T00:47:39.203Z,21.84
2022-08-24T00:48:18.119Z,21.83
2022-08-24T00:48:58.559Z,21.81
2022-08-24T00:49:44.717Z,21.80
2022-08-24T00:50:33.781Z,21.78
2022-08-24T00:51:26.278Z,21.78
2022-08-24T00:52:05.081Z,21.76
2022-08-24T00:52:47.554Z,21.75
2022-08-24T00:53:27.283Z,21.75
2022-08-24T00:54:08.560Z,21.74
2022-08-24T00:54:48.950Z,21.73
2022-08-24T00:55:27.864Z,21.72
2022-08-24T00:56:12.265Z,21.71
2022-08-24T00:56:57.127Z,21.69
2022-08-24T00:57:36.528Z,21.69
2022-08-24T00:58:25.644Z,21.68
2022-08-24T00:59:05.388Z,21.67
2022-08-24T00:59:45.468Z,21.66
2022-08-24T01:00:23.392Z,21.65
2022-08-24T01:01:00.494Z,21.64
2022-08-24T01:01:36.305Z,21.64
2022-08-24T01:02:15.829Z,21.64
2022-08-24T01:02:53.592Z,21.63
2022-08-24T01:03:28.361Z,21.62
2022-08-24T01:04:02.624Z,21.61
2022-08-24T01:04:42.537Z,21.59
2022-08-24T01:05:18.190Z,21.57
2022-08-24T01:05:51.473Z,21.56
2022-08-24T01:06:25.037Z,21.54
2022-08-24T01:06:58.654Z,21.52
2022-08-24T01:07:33.839Z,21.51
2022-08-24T01:08:10.058Z,21.48
2022-08-24T01:08:44.738Z,21.48
2022-08-24T01:09:17.819Z,21.46
2022-08-24T01:09:54.712Z,21.45
2022-08-24T01:10:31.416Z,21.44
2022-08-24T01:11:13.886Z,21.45
2022-08-24T01:11:47.703Z,21.43
2022-08-24T01:12:22.607Z,21.42
2022-08-24T01:13:01.383Z,21.42
2022-08-24T01:13:35.634Z,21.41
2022-08-24T01:14:09.371Z,21.41
2022-08-24T01:14:43.750Z,21.41
2022-08-24T01:15:20.623Z,21.41
2022-08-24T01:15:58.406Z,21.40
2022-08-24T01:16:50.327Z,21.40
2022-08-24T01:17:43.056Z,21.39
2022-08-24T01:18:38.980Z,21.39
2022-08-24T01:19:37.183Z,21.39
2022-08-24T01:20:12.251Z,21.39
2022-08-24T01:20:49.797Z,21.38
2022-08-24T01:21:38.492Z,21.38
2022-08-24T01:22:49.304Z,21.37
2022-08-24T01:23:40.440Z,21.37
2022-08-24T01:24:14.412Z,21.36
2022-08-24T01:24:47.904Z,21.36
2022-08-24T01:25:23.805Z,21.36
2022-08-24T01:25:57.239Z,21.36
2022-08-24T01:26:50.999Z,21.35
2022-08-24T01:27:24.907Z,21.33
2022-08-24T01:28:07.107Z,21.33
2022-08-24T01:28:42.738Z,21.32
2022-08-24T01:29:28.838Z,21.31
2022-08-24T01:30:09.160Z,21.30
2022-08-24T01:30:45.661Z,21.29
2022-08-24T01:31:22.483Z,21.29
2022-08-24T01:31:56.648Z,21.28
2022-08-24T01:32:30.271Z,21.27
2022-08-24T01:33:07.021Z,21.27
2022-08-24T01:33:40.466Z,21.25
2022-08-24T01:34:13.595Z,21.26
2022-08-24T01:34:46.826Z,21.24
2022-08-24T01:35:20.057Z,21.24
2022-08-24T01:36:03.935Z,21.23
2022-08-24T01:36:46.425Z,21.23
2022-08-24T01:37:19.574Z,21.22
2022-08-24T01:37:56.147Z,21.22
2022-08-24T01:38:29.348Z,21.22
2022-08-24T01:39:10.669Z,21.22
2022-08-24T01:39:46.810Z,21.23
2022-08-24T01:40:20.927Z,21.23
2022-08-24T01:41:00.191Z,21.24
2022-08-24T01:41:33.358Z,21.24
2022-08-24T01:42:07.586Z,21.24
2022-08-24T01:42:40.930Z,21.25
2022-08-24T01:43:15.368Z,21.24
2022-08-24T01:43:48.437Z,21.23
2022-08-24T01:44:23.135Z,21.24
2022-08-24T01:44:56.412Z,21.31
2022-08-24T01:45:29.866Z,21.49
2022-08-24T01:46:03.264Z,21.78
2022-08-24T01:46:36.711Z,22.06
2022-08-24T01:47:12.837Z,22.32
2022-08-24T01:47:46.385Z,22.61
2022-08-24T01:48:20.176Z,22.87
2022-08-24T01:48:58.383Z,23.17
2022-08-24T01:49:34.579Z,23.44
2022-08-24T01:50:08.494Z,23.67
2022-08-24T01:50:41.699Z,23.85
2022-08-24T01:51:15.073Z,24.01
2022-08-24T01:51:48.383Z,24.16
2022-08-24T01:52:24.781Z,24.31
2022-08-24T01:53:14.473Z,24.42
2022-08-24T01:53:47.913Z,24.51
2022-08-24T01:54:21.280Z,24.58
2022-08-24T01:54:54.975Z,24.68
2022-08-24T01:55:28.895Z,24.76
2022-08-24T01:56:02.193Z,24.85
2022-08-24T01:56:36.864Z,24.90
2022-08-24T01:57:16.318Z,24.96
2022-08-24T01:57:50.560Z,25.00
2022-08-24T01:58:24.900Z,25.05
2022-08-24T01:58:58.833Z,25.11
2022-08-24T01:59:32.350Z,25.16
2022-08-24T02:00:10.516Z,25.23
2022-08-24T02:00:45.068Z,25.29
2022-08-24T02:01:19.443Z,25.34
2022-08-24T02:02:01.897Z,25.37
2022-08-24T02:02:35.388Z,25.36
2022-08-24T02:03:08.779Z,25.31
2022-08-24T02:03:42.037Z,25.27
2022-08-24T02:04:18.836Z,25.25
2022-08-24T02:04:52.266Z,25.28
2022-08-24T02:05:26.154Z,25.34
2022-08-24T02:05:59.816Z,25.41
2022-08-24T02:06:33.611Z,25.49
2022-08-24T02:07:10.443Z,25.59
2022-08-24T02:07:44.455Z,25.69
2022-08-24T02:08:18.121Z,25.81
2022-08-24T02:08:51.259Z,25.95
2022-08-24T02:09:24.765Z,26.08
2022-08-24T02:10:07.197Z,26.24
2022-08-24T02:10:40.810Z,26.39
2022-08-24T02:11:22.443Z,26.54
2022-08-24T02:11:55.730Z,26.65
2022-08-24T02:12:28.800Z,26.76
2022-08-24T02:13:04.126Z,26.85
2022-08-24T02:13:39.809Z,26.84
2022-08-24T02:14:14.610Z,26.71
2022-08-24T02:14:48.007Z,26.51
2022-08-24T02:15:21.172Z,26.28
2022-08-24T02:15:54.366Z,26.04
2022-08-24T02:16:27.910Z,25.79
2022-08-24T02:17:01.418Z,25.55
2022-08-24T02:17:35.915Z,25.31
2022-08-24T02:18:15.220Z,25.10
2022-08-24T02:18:49.297Z,24.88
2022-08-24T02:19:22.559Z,24.86
2022-08-24T02:19:55.713Z,25.00
2022-08-24T02:20:29.647Z,25.22
2022-08-24T02:21:03.077Z,25.46
2022-08-24T02:21:36.484Z,25.69
2022-08-24T02:22:10.012Z,25.91
2022-08-24T02:22:43.065Z,26.12
2022-08-24T02:23:16.533Z,26.29
2022-08-24T02:23:49.899Z,26.43
2022-08-24T02:24:23.801Z,26.56
2022-08-24T02:24:57.894Z,26.60
2022-08-24T02:25:31.276Z,26.53
2022-08-24T02:26:06.746Z,26.38
2022-08-24T02:26:40.963Z,26.15
2022-08-24T02:27:16.729Z,25.92
2022-08-24T02:27:50.377Z,25.67
2022-08-24T02:28:23.617Z,25.44
2022-08-24T02:28:56.840Z,25.22
2022-08-24T02:29:32.429Z,25.11
2022-08-24T02:30:06.747Z,25.15
2022-08-24T02:30:40.518Z,25.35
2022-08-24T02:31:14.945Z,25.59
2022-08-24T02:31:48.259Z,25.84
2022-08-24T02:32:21.670Z,26.09
2022-08-24T02:32:54.683Z,26.29
2022-08-24T02:33:28.145Z,26.46
2022-08-24T02:34:01.436Z,26.62
2022-08-24T02:34:34.963Z,26.72
2022-08-24T02:35:09.106Z,26.75
2022-08-24T02:35:42.620Z,26.66
2022-08-24T02:36:25.978Z,26.49
2022-08-24T02:37:00.288Z,26.20
2022-08-24T02:37:33.427Z,25.95
2022-08-24T02:38:10.402Z,25.69
2022-08-24T02:38:43.824Z,25.45
2022-08-24T02:39:16.959Z,25.22
2022-08-24T02:39:50.061Z,25.02
2022-08-24T02:40:24.695Z,24.84
2022-08-24T02:40:58.312Z,24.70
2022-08-24T02:41:31.521Z,24.62
2022-08-24T02:42:05.317Z,24.56
2022-08-24T02:42:38.923Z,24.52
2022-08-24T02:43:11.994Z,24.47
2022-08-24T02:43:45.457Z,24.42
2022-08-24T02:44:19.295Z,24.37
2022-08-24T02:44:52.866Z,24.43
2022-08-24T02:45:27.633Z,24.58
2022-08-24T02:46:00.892Z,24.78
2022-08-24T02:46:34.402Z,24.99
2022-08-24T02:47:07.736Z,25.17
2022-08-24T02:47:40.895Z,25.33
2022-08-24T02:48:14.370Z,25.46
2022-08-24T02:48:47.691Z,25.57
2022-08-24T02:49:41.178Z,25.69
2022-08-24T02:50:16.201Z,25.77
2022-08-24T02:50:52.666Z,25.83
2022-08-24T02:51:29.671Z,25.88
2022-08-24T02:52:03.527Z,25.92
2022-08-24T02:52:39.758Z,25.94
2022-08-24T02:53:15.161Z,25.98
2022-08-24T02:53:48.758Z,26.03
2022-08-24T02:54:22.107Z,26.06
2022-08-24T02:54:55.323Z,26.11
2022-08-24T02:55:28.504Z,26.16
2022-08-24T02:56:01.605Z,26.19
2022-08-24T02:56:35.947Z,26.22
2022-08-24T02:57:09.132Z,26.23
2022-08-24T02:57:42.522Z,26.25
2022-08-24T02:58:17.764Z,26.27
2022-08-24T02:58:53.190Z,26.28
2022-08-24T02:59:27.797Z,26.29
2022-08-24T03:00:01.345Z,26.31
2022-08-24T03:00:36.736Z,26.32
2022-08-24T03:01:17.492Z,26.32
2022-08-24T03:01:51.673Z,26.32
2022-08-24T03:02:25.062Z,26.31
2022-08-24T03:02:59.126Z,26.30
2022-08-24T03:03:33.263Z,26.28
2022-08-24T03:04:06.493Z,26.27
2022-08-24T03:04:39.628Z,26.28
2022-08-24T03:05:12.888Z,26.28
2022-08-24T03:05:46.207Z,26.28
2022-08-24T03:06:20.398Z,26.27
2022-08-24T03:06:53.631Z,26.24
2022-08-24T03:07:27.092Z,26.21
2022-08-24T03:08:00.651Z,26.17
2022-08-24T03:08:35.690Z,26.16
2022-08-24T03:09:09.180Z,26.17
2022-08-24T03:09:42.254Z,26.18
2022-08-24T03:10:16.208Z,26.20
2022-08-24T03:10:49.988Z,26.21
2022-08-24T03:11:27.400Z,26.24
2022-08-24T03:12:01.587Z,26.29
2022-08-24T03:12:35.038Z,26.34
2022-08-24T03:13:08.260Z,26.41
2022-08-24T03:13:41.823Z,26.46
2022-08-24T03:14:15.040Z,26.48
2022-08-24T03:14:48.259Z,26.41
2022-08-24T03:15:22.806Z,26.27
2022-08-24T03:15:56.011Z,26.07
2022-08-24T03:16:29.792Z,25.84
2022-08-24T03:17:03.211Z,25.63
2022-08-24T03:17:37.276Z,25.40
2022-08-24T03:18:13.734Z,25.15
2022-08-24T03:18:48.322Z,24.95
2022-08-24T03:19:22.609Z,24.85
2022-08-24T03:19:55.754Z,24.90
2022-08-24T03:20:29.012Z,25.07
2022-08-24T03:21:03.618Z,25.27
2022-08-24T03:21:37.130Z,25.50
2022-08-24T03:22:10.276Z,25.68
2022-08-24T03:22:43.521Z,25.85
2022-08-24T03:23:16.799Z,26.00
2022-08-24T03:23:49.959Z,26.14
2022-08-24T03:24:23.608Z,26.27
2022-08-24T03:24:56.930Z,26.37
2022-08-24T03:25:30.225Z,26.46
2022-08-24T03:26:03.768Z,26.53
2022-08-24T03:26:37.085Z,26.53
2022-08-24T03:27:10.227Z,26.42
2022-08-24T03:27:43.715Z,26.25
2022-08-24T03:28:17.220Z,26.03
2022-08-24T03:28:52.027Z,25.78
2022-08-24T03:29:25.142Z,25.55
2022-08-24T03:29:58.290Z,25.32
2022-08-24T03:30:31.576Z,25.11
2022-08-24T03:31:05.692Z,24.93
2022-08-24T03:31:39.407Z,24.89
2022-08-24T03:32:12.726Z,24.98
2022-08-24T03:32:46.472Z,25.15
2022-08-24T03:33:20.302Z,25.37
2022-08-24T03:33:53.465Z,25.58
2022-08-24T03:34:26.696Z,25.73
2022-08-24T03:34:59.936Z,25.83
2022-08-24T03:35:34.161Z,25.90
2022-08-24T03:36:11.256Z,25.96
2022-08-24T03:36:46.950Z,26.05
2022-08-24T03:37:20.945Z,26.13
2022-08-24T03:37:55.060Z,26.21
2022-08-24T03:38:28.599Z,26.27
2022-08-24T03:39:01.715Z,26.34
2022-08-24T03:39:35.143Z,26.39
2022-08-24T03:40:22.550Z,26.42
2022-08-24T03:40:57.810Z,26.40
2022-08-24T03:41:31.141Z,26.39
2022-08-24T03:42:08.757Z,26.37
2022-08-24T03:42:42.107Z,26.36
2022-08-24T03:43:35.112Z,26.36
2022-08-24T03:44:08.301Z,26.33
2022-08-24T03:44:41.823Z,26.32
2022-08-24T03:45:14.941Z,26.29
2022-08-24T03:45:48.324Z,26.26
2022-08-24T03:46:27.542Z,26.23
2022-08-24T03:47:00.758Z,26.18
2022-08-24T03:47:33.777Z,26.17
2022-08-24T03:48:08.479Z,26.14
2022-08-24T03:48:42.663Z,26.13
2022-08-24T03:49:15.793Z,26.10
2022-08-24T03:49:49.581Z,26.10
2022-08-24T03:50:24.009Z,26.11
2022-08-24T03:50:57.511Z,26.10
2022-08-24T03:51:30.967Z,26.08
2022-08-24T03:52:05.972Z,26.06
2022-08-24T03:52:39.501Z,26.03
2022-08-24T03:53:12.731Z,26.00
2022-08-24T03:53:45.940Z,25.99
2022-08-24T03:54:20.086Z,25.98
2022-08-24T03:54:53.737Z,25.99
2022-08-24T03:55:26.936Z,26.00
2022-08-24T03:56:00.362Z,26.01
2022-08-24T03:56:41.934Z,26.00
2022-08-24T03:57:15.614Z,26.00
2022-08-24T03:57:50.000Z,26.00
2022-08-24T03:58:23.140Z,26.01
2022-08-24T03:58:57.566Z,26.03
2022-08-24T03:59:31.899Z,26.05
2022-08-24T04:00:08.048Z,26.05
2022-08-24T04:00:43.119Z,26.04
2022-08-24T04:01:17.941Z,26.02
2022-08-24T04:01:51.700Z,25.99
2022-08-24T04:02:25.430Z,25.97
2022-08-24T04:02:59.866Z,25.94
2022-08-24T04:03:40.815Z,25.93
2022-08-24T04:04:13.996Z,25.89
2022-08-24T04:04:47.140Z,25.86
2022-08-24T04:05:20.203Z,25.84
2022-08-24T04:05:53.262Z,25.83
2022-08-24T04:06:28.282Z,25.81
2022-08-24T04:07:01.410Z,25.80
2022-08-24T04:07:34.690Z,25.79
2022-08-24T04:08:08.568Z,25.78
2022-08-24T04:08:42.956Z,25.77
2022-08-24T04:09:17.078Z,25.78
2022-08-24T04:09:50.286Z,25.79
2022-08-24T04:10:23.437Z,25.79
2022-08-24T04:10:56.672Z,25.80
2022-08-24T04:11:30.301Z,25.82
2022-08-24T04:12:03.984Z,25.83
2022-08-24T04:12:37.057Z,25.84
2022-08-24T04:13:10.181Z,25.84
2022-08-24T04:13:43.820Z,25.84
2022-08-24T04:14:26.521Z,25.84
2022-08-24T04:15:00.885Z,25.83
2022-08-24T04:15:40.577Z,25.81
2022-08-24T04:16:17.278Z,25.81
2022-08-24T04:16:53.457Z,25.81
2022-08-24T04:17:31.143Z,25.79
2022-08-24T04:18:04.408Z,25.75
2022-08-24T04:18:37.857Z,25.75
2022-08-24T04:19:11.830Z,25.76
2022-08-24T04:19:58.031Z,25.76
2022-08-24T04:20:31.615Z,25.73
2022-08-24T04:21:05.216Z,25.72
2022-08-24T04:21:38.389Z,25.72
2022-08-24T04:22:11.571Z,25.72
2022-08-24T04:22:44.693Z,25.72
2022-08-24T04:23:19.304Z,25.71
2022-08-24T04:23:53.203Z,25.70
2022-08-24T04:24:27.495Z,25.70
2022-08-24T04:25:00.996Z,25.68
2022-08-24T04:25:48.570Z,25.65
2022-08-24T04:26:34.758Z,25.59
2022-08-24T04:27:17.612Z,25.54
2022-08-24T04:27:51.057Z,25.53
2022-08-24T04:28:24.275Z,25.53
2022-08-24T04:28:58.978Z,25.53
2022-08-24T04:29:32.322Z,25.56
2022-08-24T04:30:06.848Z,25.60
2022-08-24T04:30:45.416Z,25.63
2022-08-24T04:31:19.379Z,25.65
2022-08-24T04:31:52.758Z,25.65
2022-08-24T04:32:26.436Z,25.63
2022-08-24T04:32:59.812Z,25.62
2022-08-24T04:33:33.563Z,25.65
2022-08-24T04:34:08.186Z,25.67
2022-08-24T04:34:42.968Z,25.69
2022-08-24T04:35:16.440Z,25.73
2022-08-24T04:35:50.566Z,25.77
2022-08-24T04:36:24.236Z,25.80
2022-08-24T04:36:57.360Z,25.83
2022-08-24T04:37:30.508Z,25.85
2022-08-24T04:38:04.213Z,25.85
2022-08-24T04:38:38.362Z,25.86
2022-08-24T04:39:12.660Z,25.87
2022-08-24T04:39:45.952Z,25.89
2022-08-24T04:40:19.566Z,25.89
2022-08-24T04:40:54.142Z,25.88
2022-08-24T04:41:31.263Z,25.87
2022-08-24T04:42:06.449Z,25.86
2022-08-24T04:42:40.147Z,25.84
2022-08-24T04:43:19.477Z,25.82
2022-08-24T04:43:53.429Z,25.81
2022-08-24T04:44:30.321Z,25.82
2022-08-24T04:45:05.310Z,25.84
2022-08-24T04:45:40.617Z,25.86
2022-08-24T04:46:17.122Z,25.89
2022-08-24T04:46:50.394Z,25.93
2022-08-24T04:47:24.612Z,25.96
2022-08-24T04:47:57.847Z,26.00
2022-08-24T04:48:31.558Z,26.02
2022-08-24T04:49:04.678Z,26.02
2022-08-24T04:49:39.360Z,26.02
2022-08-24T04:50:13.101Z,26.01
2022-08-24T04:50:47.349Z,26.01
2022-08-24T04:51:21.655Z,25.99
2022-08-24T04:51:54.901Z,25.98
2022-08-24T04:52:29.392Z,25.98
2022-08-24T04:53:04.613Z,25.97
2022-08-24T04:53:38.917Z,25.98
2022-08-24T04:54:12.272Z,25.98
2022-08-24T04:54:45.632Z,26.00
2022-08-24T04:55:19.260Z,26.00
2022-08-24T04:55:52.513Z,26.01
2022-08-24T04:56:25.938Z,26.02
2022-08-24T04:56:59.130Z,26.02
2022-08-24T04:57:34.323Z,26.02
2022-08-24T04:58:07.701Z,26.02
2022-08-24T04:58:41.968Z,26.01
2022-08-24T04:59:15.296Z,26.01
2022-08-24T04:59:48.738Z,26.02
2022-08-24T05:00:22.052Z,26.01
2022-08-24T05:00:55.264Z,26.03
2022-08-24T05:01:30.797Z,26.03
2022-08-24T05:02:04.202Z,26.04
2022-08-24T05:02:44.732Z,26.05
2022-08-24T05:03:19.321Z,26.06
2022-08-24T05:03:55.401Z,26.08
2022-08-24T05:04:28.729Z,26.11
2022-08-24T05:05:04.633Z,26.12
2022-08-24T05:05:46.013Z,26.14
2022-08-24T05:06:22.625Z,26.15
2022-08-24T05:06:55.799Z,26.16
2022-08-24T05:07:30.301Z,26.16
2022-08-24T05:08:03.606Z,26.18
2022-08-24T05:08:38.259Z,26.18
2022-08-24T05:09:11.611Z,26.20
2022-08-24T05:09:45.773Z,26.20
2022-08-24T05:10:19.353Z,26.20
2022-08-24T05:10:52.517Z,26.19
2022-08-24T05:11:27.050Z,26.17
2022-08-24T05:12:00.342Z,26.16
2022-08-24T05:12:33.711Z,26.14
2022-08-24T05:13:07.749Z,26.12
2022-08-24T05:13:41.819Z,26.12
2022-08-24T05:14:14.939Z,26.11
2022-08-24T05:14:48.321Z,26.10
2022-08-24T05:15:21.606Z,26.10
2022-08-24T05:15:55.026Z,26.08
2022-08-24T05:16:28.349Z,26.08
2022-08-24T05:17:04.833Z,26.09
2022-08-24T05:17:49.927Z,26.11
2022-08-24T05:18:24.731Z,26.13
2022-08-24T05:18:58.598Z,26.15
2022-08-24T05:19:31.921Z,26.16
2022-08-24T05:20:06.387Z,26.17
2022-08-24T05:20:45.648Z,26.18
2022-08-24T05:21:22.003Z,26.19
2022-08-24T05:21:55.485Z,26.19
2022-08-24T05:22:28.741Z,26.22
2022-08-24T05:23:04.490Z,26.22
2022-08-24T05:23:39.352Z,26.24
2022-08-24T05:24:16.806Z,26.25
2022-08-24T05:24:50.456Z,26.26
2022-08-24T05:25:23.747Z,26.27
2022-08-24T05:26:16.781Z,26.27
2022-08-24T05:26:51.685Z,26.30
2022-08-24T05:27:26.288Z,26.35
2022-08-24T05:28:00.966Z,26.39
2022-08-24T05:28:35.792Z,26.41
2022-08-24T05:29:08.997Z,26.41
2022-08-24T05:29:42.068Z,26.41
2022-08-24T05:30:15.623Z,26.40
2022-08-24T05:30:51.122Z,26.40
2022-08-24T05:31:28.051Z,26.39
2022-08-24T05:32:02.340Z,26.39
2022-08-24T05:32:38.705Z,26.39
2022-08-24T05:33:11.898Z,26.40
2022-08-24T05:33:45.878Z,26.42
2022-08-24T05:34:19.775Z,26.44
2022-08-24T05:34:53.072Z,26.46
2022-08-24T05:35:26.670Z,26.48
2022-08-24T05:36:00.114Z,26.51
2022-08-24T05:36:38.713Z,26.52
2022-08-24T05:37:12.309Z,26.53
2022-08-24T05:37:45.818Z,26.52
2022-08-24T05:38:19.709Z,26.51
2022-08-24T05:38:55.821Z,26.51
2022-08-24T05:39:31.282Z,26.51
2022-08-24T05:40:07.289Z,26.52
2022-08-24T05:40:41.607Z,26.53
2022-08-24T05:41:16.532Z,26.56
2022-08-24T05:41:49.999Z,26.58
2022-08-24T05:42:23.418Z,26.60
2022-08-24T05:42:56.775Z,26.61
2022-08-24T05:43:30.461Z,26.63
2022-08-24T05:44:06.427Z,26.64
2022-08-24T05:44:39.999Z,26.64
2022-08-24T05:45:13.296Z,26.65
2022-08-24T05:45:46.526Z,26.68
2022-08-24T05:46:19.901Z,26.70
2022-08-24T05:46:56.072Z,26.74
2022-08-24T05:47:29.351Z,26.79
2022-08-24T05:48:03.898Z,26.85
2022-08-24T05:48:38.444Z,26.90
2022-08-24T05:49:12.264Z,26.95
2022-08-24T05:49:46.149Z,26.98
2022-08-24T05:50:19.283Z,27.02
2022-08-24T05:50:57.659Z,27.07
2022-08-24T05:51:31.744Z,27.10
2022-08-24T05:52:05.021Z,27.13
2022-08-24T05:52:38.491Z,27.14
2022-08-24T05:53:13.601Z,27.14
2022-08-24T05:53:46.747Z,27.15
2022-08-24T05:54:20.478Z,27.17
2022-08-24T05:54:56.921Z,27.19
2022-08-24T05:55:31.232Z,27.23
2022-08-24T05:56:14.484Z,27.28
2022-08-24T05:56:48.260Z,27.30
2022-08-24T05:57:23.184Z,27.37
2022-08-24T05:57:57.003Z,27.43
2022-08-24T05:58:31.017Z,27.49
2022-08-24T05:59:05.207Z,27.54
2022-08-24T05:59:38.777Z,27.56
2022-08-24T06:00:14.816Z,27.57
2022-08-24T06:00:50.011Z,27.58
2022-08-24T06:01:26.024Z,27.56
2022-08-24T06:01:59.435Z,27.57
2022-08-24T06:02:33.101Z,27.56
2022-08-24T06:03:06.886Z,27.52
2022-08-24T06:03:41.459Z,27.51
2022-08-24T06:04:15.152Z,27.50
2022-08-24T06:04:48.574Z,27.48
2022-08-24T06:05:21.896Z,27.43
2022-08-24T06:05:55.420Z,27.40
2022-08-24T06:06:29.189Z,27.37
2022-08-24T06:07:02.461Z,27.27
2022-08-24T06:07:36.390Z,27.25
2022-08-24T06:08:09.875Z,27.22
2022-08-24T06:08:47.361Z,27.20
2022-08-24T06:09:21.969Z,27.10
2022-08-24T06:09:55.101Z,27.05
2022-08-24T06:10:37.001Z,27.03
2022-08-24T06:11:11.008Z,27.00
2022-08-24T06:11:47.774Z,27.01
2022-08-24T06:12:21.010Z,27.02
2022-08-24T06:12:54.242Z,27.05
2022-08-24T06:13:28.066Z,27.08
2022-08-24T06:14:07.803Z,27.11
2022-08-24T06:14:45.279Z,27.13
2022-08-24T06:15:18.439Z,27.12
2022-08-24T06:16:27.913Z,27.14
2022-08-24T06:17:02.344Z,27.13
2022-08-24T06:17:35.836Z,27.14
2022-08-24T06:18:09.906Z,27.16
2022-08-24T06:18:43.187Z,27.19
2022-08-24T06:19:19.623Z,27.22
2022-08-24T06:19:53.323Z,27.23
2022-08-24T06:20:26.686Z,27.25
2022-08-24T06:21:05.017Z,27.26
2022-08-24T06:21:38.232Z,27.24
2022-08-24T06:22:11.549Z,27.25
2022-08-24T06:22:44.805Z,27.25
2022-08-24T06:23:17.893Z,27.27
2022-08-24T06:23:51.735Z,27.30
2022-08-24T06:24:46.419Z,27.31
2022-08-24T06:25:38.461Z,27.31
2022-08-24T06:26:32.586Z,27.33
2022-08-24T06:27:25.741Z,27.39
2022-08-24T06:27:59.063Z,27.45
2022-08-24T06:28:33.949Z,27.49
2022-08-24T06:29:08.488Z,27.53
2022-08-24T06:29:42.243Z,27.57
2022-08-24T06:30:15.658Z,27.62
2022-08-24T06:30:48.947Z,27.65
2022-08-24T06:31:23.231Z,27.68
2022-08-24T06:31:58.095Z,27.72
2022-08-24T06:32:33.195Z,27.74
2022-08-24T06:33:07.024Z,27.78
2022-08-24T06:33:40.632Z,27.81
2022-08-24T06:34:16.522Z,27.83
2022-08-24T06:34:50.719Z,27.86
2022-08-24T06:35:24.019Z,27.87
2022-08-24T06:35:57.273Z,27.90
2022-08-24T06:36:30.534Z,27.93
2022-08-24T06:37:03.796Z,27.96
2022-08-24T06:37:37.560Z,27.99
2022-08-24T06:38:11.371Z,28.02
2022-08-24T06:38:45.711Z,28.03
2022-08-24T06:39:20.358Z,28.05
2022-08-24T06:39:58.462Z,28.07
2022-08-24T06:40:31.940Z,28.08
2022-08-24T06:41:05.319Z,28.09
2022-08-24T06:41:41.525Z,28.11
2022-08-24T06:42:14.705Z,28.13
2022-08-24T06:42:48.788Z,28.14
2022-08-24T06:43:22.402Z,28.13
2022-08-24T06:43:55.835Z,28.13
2022-08-24T06:44:29.249Z,28.13
2022-08-24T06:45:03.461Z,28.13
2022-08-24T06:45:36.863Z,28.09
2022-08-24T06:46:10.285Z,28.01
2022-08-24T06:46:44.047Z,27.88
2022-08-24T06:47:17.434Z,27.74
2022-08-24T06:47:50.556Z,27.58
2022-08-24T06:48:24.517Z,27.42
2022-08-24T06:48:57.654Z,27.26
2022-08-24T06:49:30.820Z,27.10
2022-08-24T06:50:04.683Z,26.96
2022-08-24T06:50:39.994Z,26.83
2022-08-24T06:51:17.322Z,26.74
2022-08-24T06:51:52.197Z,26.74
2022-08-24T06:52:25.433Z,26.79
2022-08-24T06:53:00.823Z,26.88
2022-08-24T06:53:33.977Z,27.01
2022-08-24T06:54:08.645Z,27.17
2022-08-24T06:54:41.844Z,27.35
2022-08-24T06:55:15.100Z,27.52
2022-08-24T06:55:58.682Z,27.66
2022-08-24T06:56:32.164Z,27.78
2022-08-24T06:57:06.925Z,27.86
2022-08-24T06:57:40.140Z,27.91
2022-08-24T06:58:13.511Z,27.94
2022-08-24T06:58:46.735Z,27.95
2022-08-24T06:59:21.041Z,27.96
2022-08-24T06:59:54.903Z,27.95
2022-08-24T07:00:28.275Z,27.95
2022-08-24T07:01:23.367Z,27.98
2022-08-24T07:01:58.179Z,28.05
2022-08-24T07:02:31.712Z,28.09
2022-08-24T07:03:05.096Z,28.14
2022-08-24T07:03:39.590Z,28.19
2022-08-24T07:04:12.945Z,28.23
2022-08-24T07:04:47.287Z,28.26
2022-08-24T07:05:20.449Z,28.30
2022-08-24T07:05:57.687Z,28.33
2022-08-24T07:06:31.081Z,28.38
2022-08-24T07:07:04.615Z,28.39
2022-08-24T07:07:37.925Z,28.36
2022-08-24T07:08:11.232Z,28.25
2022-08-24T07:08:44.564Z,28.12
2022-08-24T07:09:18.982Z,27.98
2022-08-24T07:09:52.152Z,27.84
2022-08-24T07:10:25.771Z,27.71
2022-08-24T07:11:02.977Z,27.55
2022-08-24T07:11:36.342Z,27.42
2022-08-24T07:12:09.676Z,27.31
2022-08-24T07:12:42.936Z,27.21
2022-08-24T07:13:20.329Z,27.21
2022-08-24T07:13:53.610Z,27.34
2022-08-24T07:14:26.854Z,27.57
2022-08-24T07:15:00.103Z,27.84
2022-08-24T07:15:33.416Z,28.11
2022-08-24T07:16:07.225Z,28.35
2022-08-24T07:16:40.487Z,28.56
2022-08-24T07:17:13.948Z,28.67
2022-08-24T07:17:47.134Z,28.65
2022-08-24T07:18:21.409Z,28.54
2022-08-24T07:18:55.059Z,28.37
2022-08-24T07:19:28.497Z,28.21
2022-08-24T07:20:01.955Z,28.02
2022-08-24T07:20:35.231Z,27.84
2022-08-24T07:21:08.616Z,27.67
2022-08-24T07:21:42.816Z,27.49
2022-08-24T07:22:15.990Z,27.35
2022-08-24T07:22:49.195Z,27.20
2022-08-24T07:23:22.924Z,27.07
2022-08-24T07:24:14.959Z,26.94
2022-08-24T07:24:48.373Z,27.03
2022-08-24T07:25:21.641Z,27.24
2022-08-24T07:25:57.042Z,27.52
2022-08-24T07:26:32.228Z,27.82
2022-08-24T07:27:05.668Z,28.11
2022-08-24T07:27:39.957Z,28.37
2022-08-24T07:28:14.367Z,28.61
2022-08-24T07:28:48.432Z,28.81
2022-08-24T07:29:48.793Z,28.89
2022-08-24T07:30:26.990Z,28.80
2022-08-24T07:31:01.272Z,28.62
2022-08-24T07:31:37.024Z,28.47
2022-08-24T07:32:10.455Z,28.28
2022-08-24T07:32:43.569Z,28.11
2022-08-24T07:33:16.891Z,27.96
2022-08-24T07:33:50.045Z,27.82
2022-08-24T07:34:23.375Z,27.67